createdAt,value
2023-01-07T00:01:08.378Z,8.90
2023-01-07T00:04:13.869Z,9.13
2023-01-07T00:07:16.903Z,9.52
2023-01-07T00:10:20.029Z,9.85
2023-01-07T00:13:22.494Z,10.33
2023-01-07T00:16:28.393Z,10.45
2023-01-07T00:19:30.851Z,11.77
2023-01-07T00:22:33.742Z,11.48
2023-01-07T00:25:36.581Z,11.38
2023-01-07T00:28:42.269Z,10.82
2023-01-07T00:31:44.993Z,10.40
2023-01-07T00:34:47.712Z,10.60
2023-01-07T00:37:52.926Z,8.70
2023-01-07T00:40:56.243Z,9.73
2023-01-07T00:43:59.200Z,10.40
2023-01-07T00:47:02.809Z,11.82
2023-01-07T00:50:05.629Z,10.48
2023-01-07T00:53:09.819Z,10.45
2023-01-07T00:56:14.664Z,9.40
2023-01-07T00:59:17.467Z,9.48
2023-01-07T01:02:21.234Z,10.32
2023-01-07T01:05:24.156Z,9.83
2023-01-07T01:08:27.167Z,8.88
2023-01-07T01:11:30.277Z,9.63
2023-01-07T01:14:32.729Z,9.83
2023-01-07T01:17:36.005Z,8.82
2023-01-07T01:20:39.422Z,6.43
2023-01-07T01:23:42.946Z,9.45
2023-01-07T01:26:45.596Z,9.20
2023-01-07T01:29:48.379Z,9.30
2023-01-07T01:32:52.438Z,8.93
2023-01-07T01:35:55.981Z,9.00
2023-01-07T01:38:58.851Z,8.68
2023-01-07T01:42:06.133Z,9.80
2023-01-07T01:45:10.722Z,9.43
2023-01-07T01:48:18.266Z,9.65
2023-01-07T01:51:24.223Z,9.73
2023-01-07T01:54:28.530Z,10.18
2023-01-07T01:57:36.951Z,9.52
2023-01-07T02:00:40.228Z,8.98
2023-01-07T02:03:45.017Z,9.93
2023-01-07T02:07:04.551Z,10.63
2023-01-07T02:10:22.371Z,9.40
2023-01-07T02:13:42.056Z,9.48
2023-01-07T02:16:50.532Z,8.70
2023-01-07T02:20:11.301Z,9.77
2023-01-07T02:23:34.325Z,7.90
2023-01-07T02:26:46.038Z,9.43
2023-01-07T02:30:33.704Z,7.72
2023-01-07T02:33:47.521Z,9.50
2023-01-07T02:36:55.271Z,9.55
2023-01-07T02:40:13.156Z,8.77
2023-01-07T02:43:33.293Z,10.65
2023-01-07T02:46:58.351Z,8.73
2023-01-07T02:50:02.166Z,9.03
2023-01-07T02:53:08.302Z,8.25
2023-01-07T02:56:35.802Z,9.63
2023-01-07T02:59:38.742Z,7.88
2023-01-07T03:02:53.677Z,9.13
2023-01-07T03:06:13.233Z,9.25
2023-01-07T03:09:32.679Z,8.18
2023-01-07T03:12:46.454Z,7.07
2023-01-07T03:16:21.702Z,8.15
2023-01-07T03:19:37.895Z,7.80
2023-01-07T03:22:44.918Z,8.13
2023-01-07T03:25:51.073Z,9.50
2023-01-07T03:28:56.205Z,8.68
2023-01-07T03:32:06.307Z,8.43
2023-01-07T03:35:09.495Z,7.68
2023-01-07T03:38:13.711Z,7.40
2023-01-07T03:41:36.888Z,8.13
2023-01-07T03:44:40.362Z,7.60
2023-01-07T03:47:47.911Z,8.27
2023-01-07T03:50:51.471Z,6.85
2023-01-07T03:53:53.987Z,8.03
2023-01-07T03:56:57.110Z,8.15
2023-01-07T03:59:59.903Z,8.20
2023-01-07T04:03:02.924Z,9.60
2023-01-07T04:06:13.485Z,11.10
2023-01-07T04:09:19.071Z,18.70
2023-01-07T04:12:22.658Z,19.73
2023-01-07T04:15:25.825Z,19.73
2023-01-07T04:18:28.817Z,20.55
2023-01-07T04:21:32.045Z,16.05
2023-01-07T04:24:34.635Z,11.07
2023-01-07T04:27:38.142Z,12.35
2023-01-07T04:30:40.974Z,12.93
2023-01-07T04:33:44.355Z,11.82
2023-01-07T04:36:47.548Z,11.40
2023-01-07T04:39:50.710Z,10.18
2023-01-07T04:42:54.042Z,10.95
2023-01-07T04:45:57.067Z,12.30
2023-01-07T04:49:00.536Z,11.25
2023-01-07T04:52:04.581Z,12.63
2023-01-07T04:55:08.053Z,11.83
2023-01-07T04:58:11.039Z,13.15
2023-01-07T05:01:13.846Z,13.23
2023-01-07T05:04:18.813Z,13.30
2023-01-07T05:07:21.970Z,13.07
2023-01-07T05:10:25.167Z,14.60
2023-01-07T05:13:28.923Z,13.50
2023-01-07T05:16:32.222Z,14.37
2023-01-07T05:19:38.597Z,14.52
2023-01-07T05:22:41.944Z,15.60
2023-01-07T05:25:44.900Z,21.20
2023-01-07T05:28:48.086Z,22.33
2023-01-07T05:31:51.210Z,23.77
2023-01-07T05:34:54.330Z,24.23
2023-01-07T05:37:57.259Z,27.45
2023-01-07T05:41:00.521Z,19.52
2023-01-07T05:44:03.561Z,20.08
2023-01-07T05:47:06.721Z,20.10
2023-01-07T05:50:09.766Z,19.42
2023-01-07T05:53:12.700Z,20.90
2023-01-07T05:56:15.130Z,20.57
2023-01-07T05:59:18.305Z,19.90
2023-01-07T06:02:20.737Z,20.63
2023-01-07T06:05:23.879Z,19.50
2023-01-07T06:08:26.934Z,18.42
2023-01-07T06:11:29.503Z,17.85
2023-01-07T06:14:32.175Z,13.65
2023-01-07T06:17:35.217Z,13.50
2023-01-07T06:20:37.991Z,12.82
2023-01-07T06:23:41.116Z,10.38
2023-01-07T06:26:43.643Z,12.57
2023-01-07T06:29:46.645Z,12.18
2023-01-07T06:32:49.338Z,11.38
2023-01-07T06:35:52.412Z,10.35
2023-01-07T06:38:55.254Z,19.08
2023-01-07T06:41:58.449Z,23.27
2023-01-07T06:45:01.283Z,33.05
2023-01-07T06:48:04.243Z,19.13
2023-01-07T06:51:07.024Z,12.98
2023-01-07T06:54:10.889Z,12.20
2023-01-07T06:57:13.333Z,14.27
2023-01-07T07:00:16.693Z,12.73
2023-01-07T07:03:19.194Z,14.55
2023-01-07T07:06:22.104Z,15.57
2023-01-07T07:09:24.862Z,13.85
2023-01-07T07:12:27.547Z,14.07
2023-01-07T07:15:30.177Z,15.98
2023-01-07T07:18:33.558Z,14.93
2023-01-07T07:21:36.259Z,15.85
2023-01-07T07:24:39.474Z,15.40
2023-01-07T07:27:45.035Z,15.13
2023-01-07T07:30:48.453Z,14.75
2023-01-07T07:33:51.038Z,21.30
2023-01-07T07:36:54.058Z,14.00
2023-01-07T07:39:56.782Z,13.82
2023-01-07T07:43:11.144Z,13.93
2023-01-07T07:46:14.875Z,15.15
2023-01-07T07:49:17.827Z,12.90
2023-01-07T07:52:21.003Z,13.77
2023-01-07T07:55:26.113Z,15.63
2023-01-07T07:58:29.043Z,18.80
2023-01-07T08:01:32.509Z,17.77
2023-01-07T08:04:35.280Z,19.60
2023-01-07T08:07:38.728Z,19.55
2023-01-07T08:10:42.228Z,14.63
2023-01-07T08:13:45.237Z,15.23
2023-01-07T08:16:48.031Z,24.38
2023-01-07T08:19:50.908Z,20.03
2023-01-07T08:22:54.023Z,14.90
2023-01-07T08:26:00.669Z,14.18
2023-01-07T08:29:03.603Z,15.10
2023-01-07T08:32:06.581Z,15.90
2023-01-07T08:35:09.568Z,16.73
2023-01-07T08:38:12.571Z,22.40
2023-01-07T08:41:15.273Z,17.25
2023-01-07T08:44:21.629Z,15.18
2023-01-07T08:47:27.311Z,15.63
2023-01-07T08:50:32.458Z,13.53
2023-01-07T08:53:35.509Z,12.48
2023-01-07T08:56:38.403Z,11.25
2023-01-07T08:59:40.975Z,13.03
2023-01-07T09:02:44.071Z,52.42
2023-01-07T09:05:47.243Z,17.13
2023-01-07T09:08:50.642Z,13.13
2023-01-07T09:11:53.286Z,12.77
2023-01-07T09:14:56.348Z,13.25
2023-01-07T09:17:59.150Z,12.48
2023-01-07T09:21:02.089Z,13.20
2023-01-07T09:24:04.878Z,12.38
2023-01-07T09:27:07.737Z,12.52
2023-01-07T09:30:10.618Z,43.00
2023-01-07T09:33:13.794Z,26.17
2023-01-07T09:36:16.346Z,16.00
2023-01-07T09:39:19.300Z,16.48
2023-01-07T09:42:51.706Z,15.13
2023-01-07T09:45:57.959Z,15.18
2023-01-07T09:49:03.791Z,16.75
2023-01-07T09:52:06.739Z,12.10
2023-01-07T09:55:17.609Z,13.85
2023-01-07T09:58:22.295Z,14.88
2023-01-07T10:02:03.565Z,14.43
2023-01-07T10:05:30.934Z,13.73
2023-01-07T10:09:04.275Z,13.60
2023-01-07T10:12:07.034Z,13.98
2023-01-07T10:15:34.330Z,13.13
2023-01-07T10:18:49.098Z,15.07
2023-01-07T10:22:07.336Z,14.23
2023-01-07T10:25:18.930Z,16.33
2023-01-07T10:28:41.234Z,15.93
2023-01-07T10:31:45.988Z,12.98
2023-01-07T10:34:50.889Z,20.43
2023-01-07T10:37:57.212Z,18.80
2023-01-07T10:41:07.286Z,19.17
2023-01-07T10:44:26.285Z,15.52
2023-01-07T10:47:40.917Z,17.35
2023-01-07T10:50:53.798Z,16.30
2023-01-07T10:54:27.971Z,16.35
2023-01-07T10:57:33.003Z,36.57
2023-01-07T11:00:35.888Z,18.85
2023-01-07T11:03:40.395Z,14.95
2023-01-07T11:06:54.811Z,15.47
2023-01-07T11:10:01.854Z,15.30
2023-01-07T11:13:23.347Z,15.45
2023-01-07T11:16:32.307Z,16.33
2023-01-07T11:19:49.140Z,16.00
2023-01-07T11:22:51.857Z,15.82
2023-01-07T11:25:55.948Z,16.80
2023-01-07T11:29:15.919Z,15.67
2023-01-07T11:32:28.318Z,14.90
2023-01-07T11:35:31.120Z,14.88
2023-01-07T11:38:38.450Z,14.17
2023-01-07T11:42:32.145Z,12.80
2023-01-07T11:46:20.201Z,13.88
2023-01-07T11:49:30.499Z,15.23
2023-01-07T11:52:33.054Z,14.82
2023-01-07T11:55:35.784Z,14.65
2023-01-07T11:58:43.577Z,14.48
2023-01-07T12:01:48.605Z,15.30
2023-01-07T12:04:51.415Z,13.90
2023-01-07T12:07:55.780Z,13.48
2023-01-07T12:11:05.770Z,21.10
2023-01-07T12:14:19.607Z,13.63
2023-01-07T12:17:25.240Z,14.95
2023-01-07T12:20:27.942Z,15.98
2023-01-07T12:23:57.441Z,13.57
2023-01-07T12:27:06.194Z,13.13
2023-01-07T12:30:27.285Z,14.15
2023-01-07T12:33:58.190Z,14.37
2023-01-07T12:37:12.889Z,13.98
2023-01-07T12:40:18.389Z,10.90
2023-01-07T12:43:35.426Z,14.10
2023-01-07T12:46:44.536Z,12.93
2023-01-07T12:50:15.341Z,14.77
2023-01-07T12:53:25.099Z,16.55
2023-01-07T12:56:33.067Z,16.63
2023-01-07T12:59:48.454Z,16.85
2023-01-07T13:02:54.626Z,16.95
2023-01-07T13:06:08.870Z,16.20
2023-01-07T13:09:33.228Z,20.00
2023-01-07T13:12:45.474Z,17.65
2023-01-07T13:15:48.310Z,20.10
2023-01-07T13:18:51.358Z,17.65
2023-01-07T13:21:54.553Z,13.23
2023-01-07T13:25:30.237Z,14.48
2023-01-07T13:29:01.571Z,18.85
2023-01-07T13:32:36.102Z,14.68
2023-01-07T13:36:03.832Z,16.27
2023-01-07T13:39:25.095Z,17.13
2023-01-07T13:42:46.607Z,17.15
2023-01-07T13:45:57.320Z,18.55
2023-01-07T13:49:00.352Z,21.83
2023-01-07T13:52:18.782Z,27.75
2023-01-07T13:55:38.155Z,18.95
2023-01-07T13:58:53.707Z,15.30
2023-01-07T14:02:19.208Z,17.00
2023-01-07T14:05:22.022Z,19.10
2023-01-07T14:08:28.929Z,13.90
2023-01-07T14:11:32.699Z,18.90
2023-01-07T14:14:57.975Z,17.67
2023-01-07T14:18:07.343Z,29.58
2023-01-07T14:21:40.399Z,30.13
2023-01-07T14:25:08.466Z,25.42
2023-01-07T14:28:36.262Z,19.80
2023-01-07T14:31:39.263Z,26.35
2023-01-07T14:34:42.143Z,28.73
2023-01-07T14:37:49.676Z,20.25
2023-01-07T14:41:09.541Z,20.25
2023-01-07T14:44:28.054Z,19.47
2023-01-07T14:47:45.717Z,19.75
2023-01-07T14:51:04.913Z,18.23
2023-01-07T14:54:16.663Z,18.07
2023-01-07T14:57:37.410Z,22.63
2023-01-07T15:00:42.881Z,22.38
2023-01-07T15:03:50.241Z,24.67
2023-01-07T15:06:57.144Z,19.83
2023-01-07T15:10:36.487Z,23.25
2023-01-07T15:14:10.099Z,33.05
2023-01-07T15:17:15.593Z,25.43
2023-01-07T15:20:18.335Z,22.90
2023-01-07T15:23:27.886Z,21.63
2023-01-07T15:26:59.045Z,23.20
2023-01-07T15:30:02.209Z,24.67
2023-01-07T15:33:29.645Z,23.17
2023-01-07T15:36:33.297Z,23.40
2023-01-07T15:39:43.268Z,19.60
2023-01-07T15:42:48.810Z,20.23
2023-01-07T15:46:05.715Z,18.40
2023-01-07T15:49:11.607Z,21.33
2023-01-07T15:52:25.293Z,19.17
2023-01-07T15:55:38.207Z,20.08
2023-01-07T15:58:45.907Z,16.70
2023-01-07T16:01:50.962Z,16.05
2023-01-07T16:05:05.593Z,16.65
2023-01-07T16:08:17.423Z,16.38
2023-01-07T16:11:29.074Z,17.40
2023-01-07T16:14:36.462Z,17.23
2023-01-07T16:17:59.489Z,17.13
2023-01-07T16:21:05.983Z,17.33
2023-01-07T16:24:16.750Z,15.98
2023-01-07T16:27:29.649Z,16.52
2023-01-07T16:30:38.107Z,15.77
2023-01-07T16:33:42.697Z,17.25
2023-01-07T16:36:45.354Z,16.75
2023-01-07T16:39:51.544Z,17.88
2023-01-07T16:42:54.263Z,16.27
2023-01-07T16:46:24.161Z,16.30
2023-01-07T16:49:29.474Z,15.98
2023-01-07T16:52:33.758Z,15.33
2023-01-07T16:55:45.426Z,15.65
2023-01-07T16:58:55.868Z,15.70
2023-01-07T17:02:02.969Z,16.00
2023-01-07T17:05:16.299Z,15.20
2023-01-07T17:08:20.381Z,15.38
2023-01-07T17:11:35.814Z,16.73
2023-01-07T17:14:41.385Z,17.38
2023-01-07T17:17:44.137Z,14.45
2023-01-07T17:21:00.668Z,14.25
2023-01-07T17:24:03.585Z,14.70
2023-01-07T17:27:18.114Z,14.63
2023-01-07T17:30:22.920Z,15.10
2023-01-07T17:33:26.299Z,13.37
2023-01-07T17:36:30.617Z,14.52
2023-01-07T17:39:33.236Z,14.90
2023-01-07T17:42:54.886Z,15.23
2023-01-07T17:45:57.636Z,13.93
2023-01-07T17:49:03.802Z,14.32
2023-01-07T17:52:09.194Z,15.70
2023-01-07T17:55:22.889Z,17.40
2023-01-07T17:58:31.852Z,20.23
2023-01-07T18:01:34.778Z,16.42
2023-01-07T18:04:37.325Z,17.03
2023-01-07T18:07:40.228Z,16.25
2023-01-07T18:11:02.905Z,16.58
2023-01-07T18:14:06.280Z,16.58
2023-01-07T18:17:09.389Z,17.30
2023-01-07T18:20:13.466Z,14.45
2023-01-07T18:23:16.272Z,14.43
2023-01-07T18:26:19.224Z,15.60
2023-01-07T18:29:22.127Z,13.98
2023-01-07T18:32:25.136Z,16.10
2023-01-07T18:35:27.765Z,16.60
2023-01-07T18:38:31.071Z,17.10
2023-01-07T18:41:34.052Z,16.48
2023-01-07T18:44:37.155Z,16.40
2023-01-07T18:47:39.997Z,14.90
2023-01-07T18:50:44.285Z,15.25
2023-01-07T18:53:46.918Z,15.52
2023-01-07T18:56:49.559Z,15.60
2023-01-07T18:59:52.500Z,15.43
2023-01-07T19:02:55.423Z,13.98
2023-01-07T19:05:59.945Z,15.13
2023-01-07T19:09:03.056Z,13.90
2023-01-07T19:12:06.564Z,14.18
2023-01-07T19:15:09.857Z,14.48
2023-01-07T19:18:12.340Z,14.35
2023-01-07T19:21:15.224Z,14.02
2023-01-07T19:24:18.078Z,14.18
2023-01-07T19:27:20.930Z,14.17
2023-01-07T19:30:23.882Z,14.07
2023-01-07T19:33:26.769Z,13.73
2023-01-07T19:36:29.360Z,13.57
2023-01-07T19:39:32.346Z,13.05
2023-01-07T19:42:35.185Z,14.20
2023-01-07T19:45:38.199Z,15.15
2023-01-07T19:48:41.409Z,13.10
2023-01-07T19:51:44.417Z,16.25
2023-01-07T19:54:47.238Z,16.02
2023-01-07T19:57:49.961Z,15.53
2023-01-07T20:00:52.796Z,16.40
2023-01-07T20:03:57.981Z,15.93
2023-01-07T20:07:00.442Z,17.17
2023-01-07T20:10:03.547Z,17.77
2023-01-07T20:13:06.516Z,18.83
2023-01-07T20:16:12.704Z,17.58
2023-01-07T20:19:15.624Z,15.77
2023-01-07T20:22:18.289Z,16.58
2023-01-07T20:25:20.925Z,18.27
2023-01-07T20:28:23.700Z,21.67
2023-01-07T20:31:28.956Z,20.02
2023-01-07T20:34:31.738Z,20.40
2023-01-07T20:37:34.857Z,24.33
2023-01-07T20:40:42.229Z,22.25
2023-01-07T20:43:44.688Z,16.52
2023-01-07T20:46:47.537Z,17.73
2023-01-07T20:49:50.189Z,16.02
2023-01-07T20:52:52.885Z,18.95
2023-01-07T20:55:59.605Z,18.50
2023-01-07T20:59:02.539Z,18.97
2023-01-07T21:02:05.583Z,16.85
2023-01-07T21:05:09.762Z,16.73
2023-01-07T21:08:12.593Z,18.57
2023-01-07T21:11:21.042Z,19.02
2023-01-07T21:14:23.453Z,18.83
2023-01-07T21:17:26.526Z,16.88
2023-01-07T21:20:29.288Z,16.88
2023-01-07T21:23:31.904Z,17.38
2023-01-07T21:26:34.585Z,15.52
2023-01-07T21:29:37.299Z,15.73
2023-01-07T21:32:40.448Z,16.42
2023-01-07T21:35:43.493Z,16.52
2023-01-07T21:38:47.148Z,15.77
2023-01-07T21:41:50.377Z,16.75
2023-01-07T21:44:52.807Z,17.20
2023-01-07T21:47:55.756Z,15.60
2023-01-07T21:51:02.382Z,15.95
2023-01-07T21:54:04.983Z,15.30
2023-01-07T21:57:07.655Z,16.23
2023-01-07T22:00:11.126Z,14.90
2023-01-07T22:03:16.342Z,14.13
2023-01-07T22:06:27.930Z,15.13
2023-01-07T22:09:30.289Z,15.13
2023-01-07T22:12:33.206Z,13.48
2023-01-07T22:15:35.749Z,13.85
2023-01-07T22:18:38.539Z,14.68
2023-01-07T22:21:41.138Z,14.70
2023-01-07T22:24:44.050Z,16.17
2023-01-07T22:27:46.773Z,17.75
2023-01-07T22:30:53.412Z,16.67
2023-01-07T22:33:56.591Z,15.73
2023-01-07T22:37:06.910Z,15.57
2023-01-07T22:40:10.450Z,14.57
2023-01-07T22:43:15.280Z,14.70
2023-01-07T22:46:26.906Z,14.18
2023-01-07T22:49:31.265Z,14.45
2023-01-07T22:52:36.242Z,14.88
2023-01-07T22:55:40.886Z,15.18
2023-01-07T22:58:44.109Z,13.93
2023-01-07T23:01:46.787Z,15.40
2023-01-07T23:04:49.677Z,13.43
2023-01-07T23:07:52.554Z,13.45
2023-01-07T23:10:55.018Z,13.90
2023-01-07T23:13:58.029Z,14.98
2023-01-07T23:17:00.656Z,15.02
2023-01-07T23:20:04.007Z,13.35
2023-01-07T23:23:07.242Z,14.75
2023-01-07T23:26:13.912Z,15.68
2023-01-07T23:29:17.289Z,16.42
2023-01-07T23:32:20.345Z,16.20
2023-01-07T23:35:22.964Z,15.88
2023-01-07T23:38:26.584Z,17.05
2023-01-07T23:41:30.678Z,18.20
2023-01-07T23:44:33.851Z,18.27
2023-01-07T23:47:36.275Z,15.70
2023-01-07T23:50:39.073Z,15.90
2023-01-07T23:53:42.069Z,13.63
2023-01-07T23:56:44.876Z,14.98
2023-01-07T23:59:47.558Z,14.63
